Terminal Aerodrome Forecast
Issued by NWS Greer, SC

Home | Current Version | Previous Version | Text Only | Print | Product List | Glossary On
Versions: 1 2 3 4 5 6 7 8 9 10 11 12 13 14 15 16
000
FTUS42 KGSP 271728
TAFAVL
TAF
KAVL 271728Z 2718/2818 VRB04KT P6SM SCT060
     FM272200 30008KT P6SM VCTS BKN070CB
     FM280300 32005KT P6SM BKN150 PROB30 2803/2806 4SM -TSRA
      OVC040CB
     FM281300 31004KT P6SM BKN150 PROB30 2814/2818 4SM -TSRA
      OVC040CB=

USA.gov is the U.S. government's official web portal to all federal, state and local government web resources and services.